Time;durP1;ratioP1;P1;durP2;ratioP2;P2;SDS_P1;SDS_P2;PMS_P1;PMS_P2;Temp;Humidity;BMP_temperature;BMP_pressure;BME280_temperature;BME280_humidity;BME280_pressure;Samples;Min_cycle;Max_cycle;Signal;HPM_P1;HPM_P2
2021/06/27 00:00:37;;;;;;;10.82;9.82;;;;;;;18.89;68.03;98878.47;3589432;40;20055;-64
2021/06/27 00:03:06;;;;;;;11.30;8.70;;;;;;;18.81;68.33;98885.84;3589296;40;20052;-64
2021/06/27 00:05:35;;;;;;;13.32;8.57;;;;;;;18.83;68.54;98882.13;3589523;40;20080;-65
2021/06/27 00:08:05;;;;;;;11.38;8.45;;;;;;;18.83;68.68;98882.13;3589182;40;20080;-64
2021/06/27 00:10:34;;;;;;;9.13;8.25;;;;;;;18.75;68.62;98884.16;3589490;40;20040;-64
2021/06/27 00:13:05;;;;;;;11.57;9.43;;;;;;;18.77;68.33;98882.03;3589142;40;20067;-64
2021/06/27 00:15:37;;;;;;;10.50;9.13;;;;;;;18.60;68.92;98888.41;3588936;40;20511;-64
2021/06/27 00:18:07;;;;;;;8.57;7.70;;;;;;;18.62;69.37;98892.50;3588527;40;20048;-65
2021/06/27 00:20:37;;;;;;;9.85;8.73;;;;;;;18.66;68.85;98895.50;3588845;40;20092;-64
2021/06/27 00:23:07;;;;;;;10.45;9.20;;;;;;;18.61;69.26;98884.69;3588946;40;20306;-64
2021/06/27 00:25:35;;;;;;;9.27;8.38;;;;;;;18.47;69.71;98885.00;3588782;40;20040;-64
2021/06/27 00:28:06;;;;;;;9.18;7.97;;;;;;;18.46;69.98;98888.75;3588508;40;20052;-63
2021/06/27 00:30:36;;;;;;;9.60;8.60;;;;;;;18.48;69.84;98886.63;3592172;40;20049;-63
2021/06/27 00:33:06;;;;;;;13.38;9.75;;;;;;;18.48;69.86;98889.28;3592351;40;20067;-64
2021/06/27 00:35:34;;;;;;;9.95;9.02;;;;;;;18.44;69.70;98890.03;3592090;40;20045;-63
2021/06/27 00:38:03;;;;;;;10.88;8.65;;;;;;;18.41;69.86;98885.16;3590644;40;20487;-64
2021/06/27 00:40:32;;;;;;;10.63;9.55;;;;;;;18.39;69.37;98884.59;3591571;40;20041;-64
2021/06/27 00:43:01;;;;;;;10.05;9.00;;;;;;;18.39;69.38;98876.56;3591816;40;20080;-64
2021/06/27 00:45:30;;;;;;;9.55;8.60;;;;;;;18.25;69.65;98868.03;3589422;40;20421;-63
2021/06/27 00:47:59;;;;;;;18.13;9.68;;;;;;;18.24;69.89;98869.88;3589969;40;20055;-63
2021/06/27 00:50:30;;;;;;;11.23;9.70;;;;;;;18.25;70.00;98874.19;3590217;40;20460;-64
2021/06/27 00:53:00;;;;;;;11.23;8.73;;;;;;;18.25;70.01;98882.22;3590567;40;20056;-65
2021/06/27 00:55:28;;;;;;;11.63;8.00;;;;;;;18.26;69.82;98873.13;3591577;40;20459;-64
2021/06/27 00:57:56;;;;;;;11.18;9.88;;;;;;;18.29;69.86;98861.97;3593575;40;20040;-64
2021/06/27 01:00:26;;;;;;;12.77;8.70;;;;;;;18.22;69.76;98866.63;3596360;40;20078;-63
2021/06/27 01:02:55;;;;;;;12.00;9.10;;;;;;;18.19;70.23;98880.50;3594527;40;20041;-64
2021/06/27 01:05:25;;;;;;;9.73;8.82;;;;;;;18.14;69.90;98882.28;3594579;40;20394;-64
2021/06/27 01:07:54;;;;;;;10.18;9.05;;;;;;;18.16;69.94;98882.84;3590551;40;20047;-64
2021/06/27 01:10:23;;;;;;;10.98;9.05;;;;;;;18.19;69.46;98891.19;3590830;40;20048;-64
2021/06/27 01:12:51;;;;;;;10.68;9.68;;;;;;;18.19;69.78;98895.72;3590455;40;20055;-64
2021/06/27 01:15:21;;;;;;;10.77;9.85;;;;;;;18.09;69.90;98896.38;3590501;40;20404;-63
2021/06/27 01:17:52;;;;;;;11.60;10.40;;;;;;;17.95;69.92;98890.47;3590567;40;20056;-63
2021/06/27 01:20:24;;;;;;;11.35;10.18;;;;;;;17.85;70.86;98905.53;3594545;40;20049;-63
2021/06/27 01:22:53;;;;;;;11.75;9.18;;;;;;;17.82;71.19;98902.25;3595226;40;20048;-68
2021/06/27 01:25:24;;;;;;;11.60;9.07;;;;;;;17.84;70.96;98907.38;3593961;40;20051;-65
2021/06/27 01:27:52;;;;;;;11.20;9.93;;;;;;;17.87;71.11;98906.91;3589796;40;20057;-64
2021/06/27 01:30:22;;;;;;;10.23;9.25;;;;;;;17.82;70.83;98907.59;3590121;40;20061;-64
2021/06/27 01:32:55;;;;;;;10.20;9.10;;;;;;;17.79;70.74;98902.72;3589997;40;20051;-64
2021/06/27 01:35:26;;;;;;;11.68;10.45;;;;;;;17.71;70.66;98899.59;3589870;40;20052;-64
2021/06/27 01:37:57;;;;;;;11.55;10.48;;;;;;;17.54;71.33;98897.66;3589424;40;20052;-64
2021/06/27 01:40:27;;;;;;;11.00;9.82;;;;;;;17.41;71.74;98903.25;3588721;40;20076;-64
2021/06/27 01:43:08;;;;;;;11.48;9.77;;;;;;;17.36;72.17;98897.81;3589554;40;20075;-63
2021/06/27 01:45:37;;;;;;;10.43;9.32;;;;;;;17.39;72.48;98892.00;3589485;40;20502;-64
2021/06/27 01:48:07;;;;;;;12.05;9.85;;;;;;;17.42;72.45;98894.19;3589240;40;20397;-64
2021/06/27 01:50:36;;;;;;;10.27;9.38;;;;;;;17.38;72.01;98889.53;3589626;40;20041;-64
2021/06/27 01:53:07;;;;;;;11.45;9.60;;;;;;;17.41;72.00;98902.44;3589543;40;20071;-65
2021/06/27 01:55:35;;;;;;;9.57;8.57;;;;;;;17.44;71.81;98900.13;3589692;40;20080;-64
2021/06/27 01:58:03;;;;;;;11.82;9.45;;;;;;;17.52;71.48;98904.28;3588973;40;20385;-65
2021/06/27 02:00:32;;;;;;;11.70;9.23;;;;;;;17.58;71.47;98893.44;3590421;40;20329;-65
2021/06/27 02:03:01;;;;;;;11.18;10.00;;;;;;;17.56;71.51;98898.22;3591704;40;20398;-64
2021/06/27 02:05:30;;;;;;;10.98;9.98;;;;;;;17.46;71.56;98887.31;3591379;40;20052;-64
2021/06/27 02:07:59;;;;;;;10.95;9.85;;;;;;;17.34;71.92;98883.84;3591375;40;20051;-65
2021/06/27 02:10:29;;;;;;;16.60;11.70;;;;;;;17.21;72.00;98881.44;3625457;22;20049;-60
2021/06/27 02:12:59;;;;;;;11.60;10.50;;;;;;;17.05;72.29;98870.41;3592575;40;20051;-60
2021/06/27 02:15:28;;;;;;;11.57;9.80;;;;;;;16.95;72.79;98861.34;3590981;40;20048;-61
2021/06/27 02:18:03;;;;;;;10.95;9.85;;;;;;;16.96;73.06;98850.44;3589323;40;20076;-60
2021/06/27 02:20:31;;;;;;;12.55;9.65;;;;;;;17.00;73.10;98853.47;3589624;40;20112;-61
2021/06/27 02:22:59;;;;;;;11.77;10.57;;;;;;;17.01;73.40;98841.72;3589291;40;20048;-61
2021/06/27 02:25:29;;;;;;;13.98;10.35;;;;;;;16.98;73.15;98843.03;3589403;40;20084;-61
2021/06/27 02:27:57;;;;;;;11.77;10.68;;;;;;;16.98;73.08;98831.50;3589649;40;20310;-60
2021/06/27 02:30:24;;;;;;;9.63;8.73;;;;;;;17.00;73.29;98829.41;3590159;40;20045;-60
2021/06/27 02:32:52;;;;;;;14.57;10.93;;;;;;;17.05;72.83;98824.19;3590340;40;20056;-59
2021/06/27 02:35:20;;;;;;;11.27;10.18;;;;;;;16.96;73.27;98814.91;3590713;40;20350;-60
2021/06/27 02:37:48;;;;;;;11.02;9.90;;;;;;;16.90;73.53;98811.34;3589782;40;20366;-61
2021/06/27 02:40:16;;;;;;;11.07;9.95;;;;;;;16.93;73.21;98812.69;3589956;40;20040;-60
2021/06/27 02:42:45;;;;;;;10.98;9.95;;;;;;;17.01;73.14;98828.38;3589609;40;20045;-60
2021/06/27 02:45:14;;;;;;;12.02;9.05;;;;;;;17.08;73.11;98831.75;3589441;40;20046;-62
2021/06/27 02:47:42;;;;;;;12.80;10.00;;;;;;;17.19;72.70;98833.59;3589429;40;20071;-60
2021/06/27 02:50:12;;;;;;;12.02;8.32;;;;;;;17.28;72.63;98824.16;3590749;40;20378;-61
2021/06/27 02:52:40;;;;;;;10.30;9.32;;;;;;;17.28;71.62;98820.69;3589173;40;20056;-61
2021/06/27 02:55:10;;;;;;;11.40;9.75;;;;;;;17.22;71.88;98822.41;3589772;40;20029;-61
2021/06/27 02:57:39;;;;;;;13.48;10.95;;;;;;;17.13;72.23;98810.47;3589189;40;20056;-61
2021/06/27 03:00:11;;;;;;;12.10;9.82;;;;;;;17.06;72.40;98823.13;3589695;40;20068;-60
2021/06/27 03:02:40;;;;;;;10.85;9.75;;;;;;;17.05;72.74;98818.84;3589669;40;20044;-59
2021/06/27 03:05:09;;;;;;;11.07;9.88;;;;;;;17.10;72.36;98829.63;3589837;40;20409;-60
2021/06/27 03:07:37;;;;;;;10.82;9.82;;;;;;;17.11;72.08;98833.94;3589700;40;20056;-60
2021/06/27 03:10:07;;;;;;;15.10;11.75;;;;;;;17.04;72.36;98827.91;3589310;40;20036;-60
2021/06/27 03:12:35;;;;;;;13.05;10.80;;;;;;;16.93;72.39;98820.72;3589491;40;20084;-60
2021/06/27 03:15:03;;;;;;;11.75;10.73;;;;;;;16.81;72.44;98802.84;3589761;40;20490;-60
2021/06/27 03:17:32;;;;;;;12.27;10.55;;;;;;;16.74;73.48;98799.50;3589408;40;20085;-60
2021/06/27 03:20:00;;;;;;;9.95;8.95;;;;;;;16.81;73.47;98804.69;3589552;40;20042;-59
2021/06/27 03:22:28;;;;;;;13.82;11.15;;;;;;;16.95;72.96;98827.47;3588347;40;20045;-60
2021/06/27 03:24:56;;;;;;;15.43;12.98;;;;;;;17.04;72.29;98827.91;3589560;40;20127;-60
2021/06/27 03:27:24;;;;;;;13.00;11.35;;;;;;;17.07;72.30;98824.78;3589356;40;20324;-60
2021/06/27 03:29:52;;;;;;;11.15;9.95;;;;;;;17.06;72.10;98828.47;3589499;40;20054;-60
2021/06/27 03:32:20;;;;;;;14.68;9.77;;;;;;;16.99;72.20;98825.94;3589666;40;20549;-60
2021/06/27 03:34:49;;;;;;;12.45;10.30;;;;;;;17.07;72.56;98820.25;3589636;40;20080;-60
2021/06/27 03:37:17;;;;;;;11.05;9.55;;;;;;;17.06;72.01;98807.09;3589646;40;20045;-60
2021/06/27 03:39:45;;;;;;;12.15;10.82;;;;;;;17.01;71.72;98807.00;3588748;40;20044;-59
2021/06/27 03:42:12;;;;;;;13.50;10.45;;;;;;;16.93;71.58;98807.34;3588589;40;20052;-60
2021/06/27 03:44:40;;;;;;;12.57;11.30;;;;;;;16.81;72.43;98800.16;3589873;40;20028;-60
2021/06/27 03:47:08;;;;;;;12.75;11.40;;;;;;;16.72;72.55;98809.53;3587688;40;20057;-60
2021/06/27 03:49:36;;;;;;;11.63;10.45;;;;;;;16.69;72.79;98817.19;3588672;40;20076;-60
2021/06/27 03:52:06;;;;;;;10.18;8.93;;;;;;;16.75;73.42;98814.47;3589122;40;20068;-59
2021/06/27 03:54:34;;;;;;;11.55;10.40;;;;;;;16.90;73.15;98819.34;3589104;40;20052;-60
2021/06/27 03:57:02;;;;;;;12.95;11.75;;;;;;;16.99;72.70;98817.13;3588954;40;20057;-61
2021/06/27 03:59:30;;;;;;;11.40;10.23;;;;;;;16.97;72.37;98809.31;3592500;40;20040;-60
2021/06/27 04:01:57;;;;;;;14.23;12.75;;;;;;;16.87;72.29;98808.31;3592029;40;20084;-60
2021/06/27 04:04:25;;;;;;;13.50;11.38;;;;;;;16.81;73.18;98802.03;3592523;40;20048;-60
2021/06/27 04:06:53;;;;;;;12.75;11.13;;;;;;;16.86;72.59;98810.16;3591739;40;20039;-60
2021/06/27 04:09:22;;;;;;;12.63;11.52;;;;;;;16.92;72.63;98811.09;3591795;40;20048;-60
2021/06/27 04:11:50;;;;;;;12.45;11.15;;;;;;;16.97;72.11;98817.34;3591620;40;20048;-60
2021/06/27 04:14:18;;;;;;;12.73;10.75;;;;;;;17.03;72.61;98819.09;3591709;40;20125;-61
2021/06/27 04:16:45;;;;;;;15.02;10.57;;;;;;;17.15;72.27;98816.41;3591780;40;20382;-61
2021/06/27 04:19:14;;;;;;;11.73;9.35;;;;;;;17.21;71.88;98823.47;3593128;40;20036;-61
2021/06/27 04:21:42;;;;;;;11.40;9.98;;;;;;;17.31;71.32;98834.38;3592371;40;20056;-61
2021/06/27 04:24:10;;;;;;;13.60;10.75;;;;;;;17.34;71.32;98827.72;3591652;40;20059;-61
2021/06/27 04:26:39;;;;;;;12.38;11.18;;;;;;;17.29;71.24;98828.44;3591429;40;20052;-61
2021/06/27 04:29:11;;;;;;;13.20;11.80;;;;;;;17.26;71.36;98820.91;3590697;40;20060;-61
2021/06/27 04:31:39;;;;;;;13.23;11.70;;;;;;;17.26;71.07;98815.56;3593305;40;20044;-61
2021/06/27 04:34:07;;;;;;;13.57;12.05;;;;;;;17.32;70.76;98814.63;3592954;40;20091;-61
2021/06/27 04:36:35;;;;;;;14.43;12.90;;;;;;;17.35;70.86;98802.66;3592080;40;20048;-61
2021/06/27 04:39:06;;;;;;;14.65;11.88;;;;;;;17.30;70.77;98802.53;3590620;40;20052;-61
2021/06/27 04:41:34;;;;;;;12.48;11.15;;;;;;;17.29;71.08;98804.41;3591471;40;20064;-61
2021/06/27 04:44:04;;;;;;;12.60;11.40;;;;;;;17.30;70.97;98800.69;3589223;40;20056;-61
2021/06/27 04:46:32;;;;;;;11.95;10.65;;;;;;;17.31;71.06;98791.63;3591034;40;20052;-61
2021/06/27 04:49:00;;;;;;;12.00;10.63;;;;;;;17.35;70.85;98800.00;3592569;40;20065;-61
2021/06/27 04:51:28;;;;;;;14.10;12.10;;;;;;;17.37;70.98;98792.53;3592588;40;20040;-61
2021/06/27 04:53:56;;;;;;;12.95;11.65;;;;;;;17.45;70.66;98791.34;3591947;40;20055;-61
2021/06/27 04:56:24;;;;;;;13.10;11.80;;;;;;;17.66;70.45;98790.69;3590894;40;20052;-61
2021/06/27 04:58:51;;;;;;;13.65;11.75;;;;;;;17.87;69.89;98780.41;3592665;40;20028;-60
2021/06/27 05:01:21;;;;;;;15.55;10.48;;;;;;;18.08;69.97;98777.03;3592421;40;20049;-61
2021/06/27 05:03:48;;;;;;;15.65;14.05;;;;;;;18.29;69.13;98784.34;3591563;40;20049;-66
2021/06/27 05:06:16;;;;;;;11.40;10.30;;;;;;;18.44;68.51;98773.06;3590246;40;20134;-60
2021/06/27 05:08:44;;;;;;;11.30;9.40;;;;;;;18.56;68.24;98787.16;3591754;40;20049;-60
2021/06/27 05:11:12;;;;;;;11.95;9.00;;;;;;;18.71;68.09;98777.78;3591666;40;20033;-60
2021/06/27 05:13:39;;;;;;;10.60;9.60;;;;;;;18.83;67.46;98781.19;3590189;40;20048;-60
2021/06/27 05:16:07;;;;;;;11.77;10.75;;;;;;;18.88;66.66;98777.75;3588883;40;20060;-60
2021/06/27 05:18:36;;;;;;;11.75;10.55;;;;;;;18.95;66.69;98773.03;3589678;40;20055;-61
2021/06/27 05:21:05;;;;;;;13.38;9.77;;;;;;;19.04;65.85;98774.22;3588608;40;20044;-59
2021/06/27 05:23:33;;;;;;;13.02;9.80;;;;;;;19.15;65.56;98772.50;3590966;40;20052;-59
2021/06/27 05:26:01;;;;;;;11.07;9.98;;;;;;;19.22;65.00;98775.78;3590295;40;20053;-61
2021/06/27 05:28:30;;;;;;;10.48;9.57;;;;;;;19.24;65.09;98779.84;3589292;40;20047;-60
2021/06/27 05:30:58;;;;;;;10.82;9.63;;;;;;;19.28;64.78;98786.31;3588522;40;20049;-60
2021/06/27 05:33:25;;;;;;;10.60;9.02;;;;;;;19.34;65.22;98791.72;3588923;40;20298;-60
2021/06/27 05:35:55;;;;;;;9.23;8.25;;;;;;;19.31;64.59;98790.38;3590080;40;20056;-60
2021/06/27 05:38:27;;;;;;;10.45;9.32;;;;;;;19.33;64.52;98798.97;3589779;40;20048;-60
2021/06/27 05:40:54;;;;;;;10.55;9.50;;;;;;;19.38;64.65;98793.66;3593017;40;20098;-59
2021/06/27 05:43:22;;;;;;;13.52;10.10;;;;;;;19.39;64.39;98789.09;3592217;40;20056;-60
2021/06/27 05:45:50;;;;;;;10.45;9.45;;;;;;;19.43;64.62;98780.34;3591095;40;20052;-61
2021/06/27 05:48:18;;;;;;;10.05;9.02;;;;;;;19.45;64.40;98778.19;3592036;40;20048;-60
2021/06/27 05:50:46;;;;;;;10.25;9.35;;;;;;;19.52;64.62;98783.38;3592637;40;20088;-59
2021/06/27 05:53:15;;;;;;;10.02;9.02;;;;;;;19.62;64.13;98783.50;3589349;40;20054;-60
2021/06/27 05:55:43;;;;;;;9.15;8.35;;;;;;;19.74;64.36;98781.50;3591051;40;20329;-61
2021/06/27 05:58:11;;;;;;;12.82;11.63;;;;;;;19.81;63.60;98775.94;3590406;40;20353;-61
2021/06/27 06:00:38;;;;;;;9.02;8.13;;;;;;;19.85;63.83;98787.78;3590618;40;20065;-61
2021/06/27 06:03:07;;;;;;;11.43;8.35;;;;;;;19.95;63.63;98776.34;3591421;40;20061;-61
2021/06/27 06:05:34;;;;;;;10.70;9.65;;;;;;;19.93;63.40;98773.91;3590034;40;20052;-61
2021/06/27 06:08:02;;;;;;;9.93;8.93;;;;;;;19.92;63.37;98768.78;3590071;40;20080;-61
2021/06/27 06:10:32;;;;;;;10.00;9.18;;;;;;;19.97;63.34;98768.84;3591334;40;20033;-59
2021/06/27 06:13:00;;;;;;;10.18;9.18;;;;;;;20.06;62.87;98763.84;3590045;40;20052;-60
2021/06/27 06:15:28;;;;;;;10.93;10.02;;;;;;;20.21;63.23;98769.34;3590400;40;20382;-60
2021/06/27 06:17:56;;;;;;;10.43;9.43;;;;;;;20.31;62.38;98774.78;3588539;40;20084;-60
2021/06/27 06:20:24;;;;;;;10.32;9.32;;;;;;;20.45;62.47;98770.59;3590110;40;20048;-60
2021/06/27 06:22:51;;;;;;;10.93;9.32;;;;;;;20.65;61.74;98772.63;3589623;40;20052;-60
2021/06/27 06:25:19;;;;;;;9.23;8.43;;;;;;;20.81;61.46;98765.47;3589791;40;20394;-60
2021/06/27 06:27:49;;;;;;;9.32;8.15;;;;;;;20.83;60.59;98768.72;3589410;40;20093;-61
2021/06/27 06:30:17;;;;;;;9.52;8.63;;;;;;;20.88;60.83;98763.38;3589610;40;20051;-60
2021/06/27 06:32:45;;;;;;;9.40;8.57;;;;;;;20.95;60.58;98763.94;3589833;40;20063;-60
2021/06/27 06:35:13;;;;;;;11.05;8.15;;;;;;;21.11;60.36;98778.28;3590591;40;20064;-60
2021/06/27 06:37:41;;;;;;;9.20;8.30;;;;;;;21.16;60.06;98769.41;3591422;40;20048;-60
2021/06/27 06:40:10;;;;;;;8.90;8.10;;;;;;;21.17;59.74;98781.78;3591418;40;20071;-60
2021/06/27 06:42:38;;;;;;;8.68;7.88;;;;;;;21.19;59.81;98779.66;3590948;40;20425;-60
2021/06/27 06:45:08;;;;;;;8.63;7.82;;;;;;;21.23;59.43;98778.06;3591782;40;20081;-60
2021/06/27 06:47:35;;;;;;;8.13;7.32;;;;;;;21.25;59.20;98774.03;3591136;40;20088;-59
2021/06/27 06:50:04;;;;;;;7.93;7.15;;;;;;;21.33;59.08;98761.19;3591640;40;20040;-61
2021/06/27 06:52:32;;;;;;;7.90;7.13;;;;;;;21.44;58.85;98769.03;3591364;40;20041;-60
2021/06/27 06:55:00;;;;;;;10.90;7.90;;;;;;;21.57;58.05;98770.41;3591365;40;20393;-60
2021/06/27 06:57:28;;;;;;;7.70;6.90;;;;;;;21.61;58.01;98763.41;3589754;40;20055;-62
2021/06/27 06:59:56;;;;;;;8.05;7.35;;;;;;;21.70;58.09;98759.13;3591539;40;20059;-60
2021/06/27 07:02:25;;;;;;;7.82;7.13;;;;;;;21.83;57.71;98763.19;3591703;40;20055;-60
2021/06/27 07:04:53;;;;;;;7.78;7.07;;;;;;;21.95;57.65;98750.28;3590952;40;20409;-61
2021/06/27 07:07:20;;;;;;;7.55;6.85;;;;;;;22.00;57.15;98753.00;3588245;40;20080;-61
2021/06/27 07:09:48;;;;;;;7.45;6.82;;;;;;;22.03;56.93;98751.63;3588971;40;20035;-60
2021/06/27 07:12:16;;;;;;;8.10;7.30;;;;;;;22.13;56.55;98748.19;3589275;40;20044;-61
2021/06/27 07:14:45;;;;;;;8.15;7.43;;;;;;;22.15;55.96;98748.72;3589654;40;20055;-61
2021/06/27 07:17:12;;;;;;;7.40;6.80;;;;;;;22.13;55.86;98753.56;3589027;40;20028;-60
2021/06/27 07:19:42;;;;;;;7.32;6.72;;;;;;;22.23;56.06;98746.28;3589162;40;20044;-61
2021/06/27 07:22:10;;;;;;;7.47;6.78;;;;;;;22.38;56.11;98748.16;3589734;40;20303;-60
2021/06/27 07:24:38;;;;;;;7.38;6.68;;;;;;;22.49;55.72;98747.09;3589536;40;20048;-60
2021/06/27 07:27:07;;;;;;;7.30;6.35;;;;;;;22.67;55.01;98743.00;3588921;40;20052;-60
2021/06/27 07:29:35;;;;;;;7.05;6.45;;;;;;;22.74;54.11;98746.22;3589237;40;20040;-59
2021/06/27 07:32:04;;;;;;;6.53;5.88;;;;;;;22.78;54.04;98749.19;3589396;40;20076;-58
2021/06/27 07:34:31;;;;;;;7.00;6.35;;;;;;;22.82;54.49;98750.25;3590494;40;20063;-59
2021/06/27 07:37:03;;;;;;;6.50;5.90;;;;;;;23.03;53.85;98748.31;3592511;40;20448;-60
2021/06/27 07:39:31;;;;;;;6.55;6.05;;;;;;;23.15;53.68;98742.63;3592455;40;20044;-61
2021/06/27 07:41:59;;;;;;;8.25;7.50;;;;;;;23.17;53.25;98749.34;3592030;40;20052;-61
2021/06/27 07:44:26;;;;;;;7.00;6.07;;;;;;;23.22;52.70;98756.59;3593721;40;20055;-61
2021/06/27 07:46:54;;;;;;;5.80;5.32;;;;;;;23.28;52.74;98760.09;3592860;40;20382;-60
2021/06/27 07:49:22;;;;;;;6.00;5.55;;;;;;;23.38;51.97;98758.13;3591567;40;20041;-60
2021/06/27 07:51:49;;;;;;;5.85;5.45;;;;;;;23.46;52.12;98754.84;3592142;40;20059;-61
2021/06/27 07:54:19;;;;;;;6.45;5.88;;;;;;;23.66;51.91;98750.47;3592675;40;20084;-60
2021/06/27 07:56:46;;;;;;;6.35;5.85;;;;;;;23.92;51.23;98749.22;3591515;40;20025;-61
2021/06/27 07:59:15;;;;;;;6.30;5.38;;;;;;;24.06;50.08;98751.28;3592689;40;20021;-60
2021/06/27 08:01:42;;;;;;;5.85;5.35;;;;;;;24.10;50.34;98746.94;3591226;40;20040;-61
2021/06/27 08:04:10;;;;;;;5.38;4.88;;;;;;;24.14;49.91;98746.06;3593143;40;20036;-62
2021/06/27 08:06:38;;;;;;;5.55;5.15;;;;;;;24.17;49.10;98750.13;3591072;40;20056;-61
2021/06/27 08:09:06;;;;;;;5.18;4.78;;;;;;;24.20;49.50;98746.81;3589591;40;20028;-61
2021/06/27 08:11:36;;;;;;;6.22;5.40;;;;;;;24.35;48.88;98744.00;3623983;22;20352;-63
2021/06/27 08:14:04;;;;;;;4.93;4.53;;;;;;;24.46;48.19;98740.16;3588418;40;20116;-64
2021/06/27 08:16:32;;;;;;;5.20;4.80;;;;;;;24.74;48.15;98734.19;3588456;40;20298;-64
2021/06/27 08:19:00;;;;;;;6.65;4.50;;;;;;;25.03;47.65;98734.16;3588601;40;20048;-64
2021/06/27 08:21:28;;;;;;;4.88;4.47;;;;;;;25.28;46.64;98733.06;3587740;40;20041;-64
2021/06/27 08:23:55;;;;;;;6.05;5.60;;;;;;;25.54;46.09;98738.91;3588764;40;20074;-64
2021/06/27 08:26:24;;;;;;;5.88;4.88;;;;;;;25.71;45.07;98733.78;3588537;40;20045;-65
2021/06/27 08:28:54;;;;;;;4.60;4.20;;;;;;;25.86;44.39;98733.59;3588637;40;20309;-64
2021/06/27 08:31:22;;;;;;;4.72;4.10;;;;;;;26.01;44.64;98727.16;3589052;40;20055;-64
2021/06/27 08:33:50;;;;;;;5.10;4.55;;;;;;;26.35;43.07;98709.78;3589171;40;20067;-63
2021/06/27 08:36:18;;;;;;;5.68;4.25;;;;;;;26.41;43.68;98714.81;3588372;40;20037;-62
2021/06/27 08:38:46;;;;;;;4.38;4.07;;;;;;;26.58;43.83;98713.47;3588486;40;20052;-63
2021/06/27 08:41:14;;;;;;;4.82;4.47;;;;;;;26.72;42.92;98703.41;3588480;40;20061;-63
2021/06/27 08:43:42;;;;;;;4.10;3.80;;;;;;;26.86;41.58;98708.81;3588453;40;20060;-63
2021/06/27 08:46:14;;;;;;;4.35;4.03;;;;;;;26.79;41.32;98708.44;3588106;40;20409;-64
2021/06/27 08:48:44;;;;;;;5.22;4.13;;;;;;;26.79;41.93;98703.03;3587306;40;20395;-63
2021/06/27 08:51:13;;;;;;;4.90;4.10;;;;;;;26.74;41.40;98701.22;3588248;40;20398;-64
2021/06/27 08:53:42;;;;;;;4.28;3.97;;;;;;;26.77;41.26;98703.31;3588391;40;20464;-64
2021/06/27 08:56:12;;;;;;;4.90;4.50;;;;;;;26.83;41.90;98699.41;3587028;40;20055;-64
2021/06/27 08:58:41;;;;;;;4.22;3.92;;;;;;;26.99;41.92;98690.97;3588330;40;20052;-63
2021/06/27 09:01:14;;;;;;;5.25;4.22;;;;;;;27.12;40.72;98695.59;3587320;40;20047;-63
2021/06/27 09:03:45;;;;;;;4.55;4.25;;;;;;;27.06;40.72;98702.19;3587985;40;20048;-64
2021/06/27 09:06:23;;;;;;;4.70;4.15;;;;;;;27.10;40.41;98701.31;3587758;40;20055;-64
2021/06/27 09:09:09;;;;;;;4.80;4.18;;;;;;;27.29;39.89;98700.38;3587735;40;20040;-64
2021/06/27 09:11:37;;;;;;;5.85;5.32;;;;;;;27.27;38.77;98700.69;3589649;40;20453;-64
2021/06/27 09:14:26;;;;;;;6.25;5.65;;;;;;;27.42;38.80;98699.53;3588825;40;20048;-65
2021/06/27 09:17:13;;;;;;;4.05;3.75;;;;;;;27.52;38.58;98701.25;3589629;40;20055;-64
2021/06/27 09:20:04;;;;;;;4.00;3.70;;;;;;;27.57;38.12;98693.78;3588763;40;20059;-64
2021/06/27 09:22:34;;;;;;;3.50;3.20;;;;;;;27.57;38.37;98692.97;3589949;40;20056;-64
2021/06/27 09:25:20;;;;;;;3.90;3.60;;;;;;;27.69;38.55;98693.22;3589906;40;20045;-64
2021/06/27 09:28:02;;;;;;;3.50;3.25;;;;;;;27.85;37.63;98685.56;3588880;40;20041;-64
2021/06/27 09:30:32;;;;;;;3.50;3.20;;;;;;;28.00;36.80;98692.50;3590288;40;20110;-64
2021/06/27 09:33:04;;;;;;;3.85;3.55;;;;;;;28.04;37.06;98685.34;3589871;40;20060;-64
2021/06/27 09:35:42;;;;;;;3.75;3.45;;;;;;;27.94;37.17;98697.28;3589498;40;20088;-64
2021/06/27 09:38:35;;;;;;;3.67;3.38;;;;;;;27.85;37.95;98697.22;3588584;40;20052;-64
2021/06/27 09:41:06;;;;;;;4.07;3.75;;;;;;;27.93;36.72;98689.44;3589948;40;20052;-63
2021/06/27 09:43:36;;;;;;;3.30;3.10;;;;;;;27.98;37.05;98692.03;3589816;40;20044;-63
2021/06/27 09:46:12;;;;;;;3.45;3.17;;;;;;;27.99;37.09;98686.28;3588232;40;20084;-65
2021/06/27 09:48:53;;;;;;;3.85;3.55;;;;;;;28.11;36.46;98691.13;3589624;40;20046;-65
2021/06/27 09:51:21;;;;;;;3.70;3.40;;;;;;;28.14;36.03;98687.81;3588672;40;20326;-64
2021/06/27 09:53:50;;;;;;;3.30;3.10;;;;;;;28.20;35.90;98689.25;3589751;40;20056;-65
2021/06/27 09:56:20;;;;;;;5.35;3.95;;;;;;;28.29;36.11;98690.13;3589152;40;20395;-65
2021/06/27 09:59:03;;;;;;;3.42;3.13;;;;;;;28.30;35.11;98682.78;3589548;40;20044;-64
2021/06/27 10:01:33;;;;;;;4.57;4.18;;;;;;;28.38;35.73;98688.28;3589761;40;20080;-63
2021/06/27 10:04:05;;;;;;;4.40;4.00;;;;;;;28.45;35.96;98690.53;3589814;40;20052;-64
2021/06/27 10:06:34;;;;;;;3.35;3.15;;;;;;;28.49;36.15;98682.56;3589631;40;20080;-64
2021/06/27 10:09:11;;;;;;;3.90;3.60;;;;;;;28.51;34.63;98689.31;3588577;40;20053;-63
2021/06/27 10:11:40;;;;;;;3.40;3.10;;;;;;;28.45;34.83;98682.38;3590031;40;20088;-65
2021/06/27 10:14:10;;;;;;;3.83;3.53;;;;;;;28.49;34.86;98688.78;3589857;40;20075;-64
2021/06/27 10:16:39;;;;;;;3.63;3.30;;;;;;;28.52;34.37;98681.94;3591677;40;20048;-64
2021/06/27 10:19:09;;;;;;;3.83;3.45;;;;;;;28.44;34.56;98686.22;3594380;40;20085;-64
2021/06/27 10:21:37;;;;;;;5.45;3.20;;;;;;;28.30;35.34;98675.44;3594422;40;20047;-65
2021/06/27 10:24:05;;;;;;;3.33;3.13;;;;;;;28.46;35.50;98681.28;3593013;40;20055;-65
2021/06/27 10:26:33;;;;;;;4.05;3.63;;;;;;;28.66;34.65;98679.09;3591746;40;20047;-66
2021/06/27 10:29:02;;;;;;;3.58;3.10;;;;;;;28.63;34.31;98672.41;3592705;40;20083;-66
2021/06/27 10:31:30;;;;;;;5.88;4.18;;;;;;;28.75;34.73;98677.25;3593372;40;20033;-66
2021/06/27 10:33:58;;;;;;;4.28;3.88;;;;;;;28.80;34.64;98672.44;3593855;40;20084;-65
2021/06/27 10:36:31;;;;;;;4.50;3.47;;;;;;;28.69;34.27;98668.41;3592673;40;20048;-66
2021/06/27 10:39:02;;;;;;;4.55;4.10;;;;;;;28.81;34.92;98678.69;3593121;40;20322;-66
2021/06/27 10:41:49;;;;;;;4.03;3.72;;;;;;;28.92;34.25;98674.56;3593604;40;20097;-65
2021/06/27 10:44:17;;;;;;;3.78;3.47;;;;;;;28.78;34.59;98673.88;3593532;40;20128;-66
2021/06/27 10:46:46;;;;;;;4.30;3.90;;;;;;;28.83;34.99;98671.81;3593192;40;20037;-66
2021/06/27 10:50:08;;;;;;;3.90;3.60;;;;;;;28.92;35.04;98677.28;3593551;40;20341;-66
2021/06/27 10:53:00;;;;;;;4.25;3.88;;;;;;;28.79;34.05;98667.34;3593612;40;20303;-65
2021/06/27 10:55:39;;;;;;;;;;;;;;;28.60;34.58;98670.31;3594614;40;20145;-65
2021/06/27 10:58:09;;;;;;;4.00;3.70;;;;;;;28.52;35.09;98666.44;3593080;40;19948;-66
2021/06/27 11:01:10;;;;;;;4.63;4.28;;;;;;;28.40;35.59;98668.94;3593681;40;20047;-67
2021/06/27 11:03:43;;;;;;;3.90;3.60;;;;;;;28.39;35.75;98656.47;3562121;40;20507;-66
2021/06/27 11:06:28;;;;;;;;;;;;;;;28.63;35.45;98661.53;3563260;40;20045;-67
2021/06/27 11:09:01;;;;;;;6.38;4.28;;;;;;;28.76;34.75;98652.44;3580580;40;19965;-65
2021/06/27 11:11:28;;;;;;;3.83;3.53;;;;;;;28.87;34.93;98653.75;3592308;40;20072;-65
2021/06/27 11:14:16;;;;;;;3.83;3.53;;;;;;;28.96;34.79;98658.41;3592228;40;20434;-65
2021/06/27 11:17:05;;;;;;;4.30;4.00;;;;;;;29.09;34.31;98661.00;3592037;40;20080;-64
2021/06/27 11:19:35;;;;;;;4.32;4.03;;;;;;;29.23;34.76;98660.88;3591263;40;20088;-65
2021/06/27 11:22:21;;;;;;;4.57;4.18;;;;;;;29.23;34.24;98657.34;3590547;40;20088;-65
2021/06/27 11:24:52;;;;;;;6.07;5.47;;;;;;;29.05;34.92;98662.75;3591031;40;20064;-65
2021/06/27 11:27:31;;;;;;;4.30;4.00;;;;;;;29.03;35.24;98654.13;3590813;40;20394;-65
2021/06/27 11:29:59;;;;;;;4.03;3.72;;;;;;;29.08;34.07;98656.69;3589695;40;20436;-64
2021/06/27 11:32:40;;;;;;;4.30;3.90;;;;;;;29.12;34.20;98646.78;3590320;40;20602;-64
2021/06/27 11:35:08;;;;;;;5.72;5.15;;;;;;;29.22;34.69;98648.38;3592251;40;20052;-65
2021/06/27 11:37:49;;;;;;;4.28;3.53;;;;;;;29.33;34.16;98654.31;3591109;40;20325;-65
2021/06/27 11:40:42;;;;;;;3.58;3.25;;;;;;;29.27;34.04;98650.97;3590721;40;20065;-65
2021/06/27 11:43:10;;;;;;;3.67;3.42;;;;;;;29.33;33.75;98637.97;3590588;40;20046;-65